Time;durP1;ratioP1;P1;durP2;ratioP2;P2;SDS_P1;SDS_P2;PMS_P1;PMS_P2;Temp;Humidity;BMP_temperature;BMP_pressure;BME280_temperature;BME280_humidity;BME280_pressure;Samples;Min_cycle;Max_cycle;Signal;HPM_P1;HPM_P2
2022/01/13 09:37:25;;;;;;;6.07;3.73;;;;;;;2.08;89.63;101332.94;5105260;28;20563;-84
2022/01/13 09:39:53;;;;;;;5.23;4.40;;;;;;;2.58;88.08;101327.34;5080876;28;38962;-86
2022/01/13 09:42:21;;;;;;;5.33;3.80;;;;;;;3.27;84.88;101355.84;5085751;28;41456;-85
2022/01/13 09:44:49;;;;;;;4.80;3.60;;;;;;;3.63;81.61;101346.44;5088526;28;43427;-87
2022/01/13 09:47:16;;;;;;;3.80;3.40;;;;;;;4.03;79.58;101344.91;5089738;28;41270;-84
2022/01/13 09:49:44;;;;;;;5.00;3.40;;;;;;;4.45;77.64;101352.88;5090509;28;38942;-84
2022/01/13 09:52:12;;;;;;;5.37;3.40;;;;;;;4.84;76.04;101366.94;5085735;28;42228;-86
2022/01/13 09:54:41;;;;;;;5.00;3.37;;;;;;;5.15;73.98;101371.34;5080751;28;41873;-85
2022/01/13 09:57:08;;;;;;;5.83;3.60;;;;;;;5.37;73.16;101357.31;5090150;28;42163;-85
2022/01/13 09:59:36;;;;;;;5.30;3.57;;;;;;;5.57;71.71;101365.16;5090337;28;39032;-85
2022/01/13 10:02:04;;;;;;;7.33;4.67;;;;;;;5.81;70.02;101385.25;5090062;28;40550;-86
2022/01/13 10:04:46;;;;;;;5.07;3.90;;;;;;;5.71;69.57;101349.34;5089855;28;42233;-84
2022/01/13 10:07:17;;;;;;;5.63;3.93;;;;;;;5.93;69.27;101369.50;5107346;28;42206;-83
2022/01/13 10:09:55;;;;;;;4.77;3.47;;;;;;;6.16;69.62;101394.84;5090554;28;38854;-86
2022/01/13 10:12:27;;;;;;;6.17;3.80;;;;;;;6.12;67.27;101400.13;5106733;28;40538;-86
2022/01/13 10:17:49;;;;;;;6.93;4.13;;;;;;;6.00;68.17;101400.16;5089573;28;41274;-82
2022/01/13 10:20:19;;;;;;;5.83;3.77;;;;;;;5.93;67.85;101387.03;5106888;28;40652;-87
2022/01/13 10:22:47;;;;;;;5.73;3.47;;;;;;;6.03;68.02;101410.69;5089473;28;42214;-87
2022/01/13 10:25:34;;;;;;;6.07;4.43;;;;;;;6.00;67.41;101407.16;5089524;28;42004;-84
2022/01/13 10:28:17;;;;;;;5.27;4.00;;;;;;;5.73;67.13;101371.25;5089228;28;42090;-87
2022/01/13 10:30:52;;;;;;;5.13;3.63;;;;;;;5.89;67.73;101401.94;5090572;28;38980;-87
2022/01/13 10:33:22;;;;;;;7.67;4.47;;;;;;;5.93;67.51;101393.19;5089392;28;40657;-85
2022/01/13 10:35:54;;;;;;;5.77;4.20;;;;;;;5.98;67.37;101387.88;5089189;28;42970;-85
2022/01/13 10:38:24;;;;;;;4.80;3.30;;;;;;;5.99;67.15;101377.34;5089609;28;41191;-84
2022/01/13 10:40:58;;;;;;;6.27;4.17;;;;;;;6.02;66.77;101373.84;5090075;28;38875;-84
2022/01/13 10:43:26;;;;;;;4.77;3.73;;;;;;;6.17;66.10;101380.81;5106227;28;40547;-82
2022/01/13 10:45:55;;;;;;;5.60;4.10;;;;;;;6.39;66.30;101395.63;5088975;28;41766;-82
2022/01/13 10:48:24;;;;;;;5.73;4.07;;;;;;;6.48;66.16;101377.13;5077248;28;42222;-88
2022/01/13 10:50:56;;;;;;;6.90;4.23;;;;;;;6.79;65.88;101407.69;5092749;28;40889;-87
2022/01/13 10:53:25;;;;;;;6.07;4.47;;;;;;;6.82;65.31;101388.31;5075862;28;40253;-87
2022/01/13 10:56:04;;;;;;;6.27;3.90;;;;;;;6.88;64.17;101393.56;5076057;28;42843;-89
2022/01/13 10:58:35;;;;;;;7.97;4.33;;;;;;;6.92;63.75;101395.31;5076496;28;42319;-86
2022/01/13 11:01:04;;;;;;;5.23;3.87;;;;;;;7.10;63.87;101402.19;5076175;28;40062;-89
2022/01/13 11:03:39;;;;;;;5.03;3.70;;;;;;;7.12;63.23;101377.56;5074959;28;40636;-86
2022/01/13 11:06:09;;;;;;;5.63;4.03;;;;;;;7.09;62.63;101345.09;5075537;28;41432;-86
2022/01/13 11:08:40;;;;;;;5.23;3.70;;;;;;;7.36;61.64;101365.94;5075193;28;42231;-86
2022/01/13 11:11:18;;;;;;;5.67;3.73;;;;;;;7.52;62.39;101357.00;5075807;28;38707;-89
2022/01/13 11:13:54;;;;;;;4.97;4.10;;;;;;;7.49;62.14;101333.31;5091673;28;42246;-87
2022/01/13 11:16:23;;;;;;;6.03;4.23;;;;;;;7.64;61.89;101341.94;5074531;28;41835;-87
2022/01/13 11:18:51;;;;;;;5.40;4.07;;;;;;;7.92;61.54;101351.28;5074906;28;42255;-88
2022/01/13 11:21:19;;;;;;;9.13;4.53;;;;;;;8.09;60.45;101349.31;5092962;28;39740;-85
2022/01/13 11:23:51;;;;;;;8.13;4.90;;;;;;;8.32;60.47;101345.53;5074845;28;40683;-87
2022/01/13 11:26:26;;;;;;;6.53;4.73;;;;;;;8.67;59.21;101372.31;5075543;28;41776;-85
2022/01/13 11:28:54;;;;;;;7.57;5.00;;;;;;;8.85;58.43;101384.38;5091322;28;42224;-86
2022/01/13 11:31:22;;;;;;;6.30;4.93;;;;;;;8.87;58.63;101377.31;5092865;28;39358;-89
2022/01/13 11:33:51;;;;;;;5.70;4.80;;;;;;;9.02;57.82;101392.06;5074864;28;40412;-87
2022/01/13 11:36:19;;;;;;;6.67;4.47;;;;;;;9.02;58.25;101382.38;5074722;28;42755;-88
2022/01/13 11:38:56;;;;;;;8.70;5.00;;;;;;;9.12;57.04;101383.97;5074624;28;41153;-86
2022/01/13 11:41:26;;;;;;;6.17;4.27;;;;;;;9.30;57.03;101381.00;5075719;28;40379;-89
2022/01/13 11:43:55;;;;;;;8.80;5.50;;;;;;;9.66;56.81;101381.25;5074853;28;41720;-85
2022/01/13 11:46:24;;;;;;;6.30;4.40;;;;;;;9.95;56.50;101378.06;5074915;28;41400;-89
2022/01/13 11:49:00;;;;;;;6.33;4.70;;;;;;;10.15;55.88;101399.69;5091224;28;42117;-87
2022/01/13 11:51:40;;;;;;;6.57;4.87;;;;;;;10.12;56.47;101397.13;5075242;28;38523;-84
2022/01/13 11:54:07;;;;;;;6.57;4.47;;;;;;;10.08;55.55;101391.03;5091341;28;42698;-85
2022/01/13 11:56:36;;;;;;;6.10;4.83;;;;;;;10.01;53.97;101393.84;5074691;28;41704;-88
2022/01/13 11:59:09;;;;;;;7.57;5.10;;;;;;;9.88;54.01;101371.16;5072958;28;41889;-90
2022/01/13 12:01:38;;;;;;;8.00;4.73;;;;;;;9.90;55.12;101364.03;5074705;28;39451;-87
2022/01/13 12:04:08;;;;;;;6.13;4.40;;;;;;;10.03;54.17;101354.94;5074081;28;41535;-90
2022/01/13 12:06:43;;;;;;;7.80;5.00;;;;;;;10.38;54.69;101354.25;5075989;28;41432;-89
2022/01/13 12:09:13;;;;;;;5.97;4.70;;;;;;;11.30;53.80;101350.28;5070455;28;41057;-89
2022/01/13 12:11:46;;;;;;;6.00;4.73;;;;;;;12.75;51.36;101370.91;5054763;28;39068;-88
2022/01/13 12:14:44;;;;;;;6.33;4.87;;;;;;;14.10;49.17;101373.41;5054260;28;40693;-88
2022/01/13 12:17:23;;;;;;;7.40;5.20;;;;;;;15.25;44.57;101384.91;5029317;28;41785;-86
2022/01/13 12:19:59;;;;;;;4.97;4.17;;;;;;;15.85;43.05;101385.91;5088597;28;42418;-87
2022/01/13 12:22:48;;;;;;;4.87;4.27;;;;;;;16.55;41.80;101393.44;5088779;28;40564;-85
2022/01/13 12:25:21;;;;;;;6.30;4.50;;;;;;;17.70;41.08;101386.88;5075290;28;40255;-86
2022/01/13 12:27:52;;;;;;;5.03;4.37;;;;;;;18.88;37.95;101410.91;5073039;28;42050;-85
2022/01/13 12:30:26;;;;;;;6.07;4.70;;;;;;;19.74;36.50;101405.00;5074593;28;40904;-83
2022/01/13 12:32:58;;;;;;;5.43;4.87;;;;;;;20.31;34.14;101403.25;5073333;28;38963;-81
2022/01/13 12:35:41;;;;;;;6.00;5.40;;;;;;;20.49;32.86;101412.03;5090750;28;42802;-83
2022/01/13 12:38:11;;;;;;;5.77;5.07;;;;;;;20.55;32.50;101406.25;5073746;28;41878;-83
2022/01/13 12:40:43;;;;;;;6.37;4.80;;;;;;;20.53;33.46;101386.63;5078433;28;42528;-83
2022/01/13 12:43:37;;;;;;;5.50;4.87;;;;;;;20.44;32.71;101384.53;5058437;28;38840;-84
2022/01/13 12:46:08;;;;;;;6.73;4.67;;;;;;;20.24;33.86;101377.69;5076472;28;40655;-83
2022/01/13 12:48:46;;;;;;;5.50;4.40;;;;;;;20.16;32.83;101388.03;5082011;28;42861;-83
2022/01/13 12:51:14;;;;;;;4.63;4.23;;;;;;;19.93;33.58;101375.16;5074446;28;41232;-84
2022/01/13 12:53:42;;;;;;;5.47;4.83;;;;;;;19.66;33.85;101340.91;5073811;28;39029;-84
2022/01/13 12:56:13;;;;;;;5.07;4.57;;;;;;;19.66;33.61;101367.78;5073957;28;41846;-83
2022/01/13 12:58:45;;;;;;;5.47;4.57;;;;;;;19.39;34.74;101358.69;5090157;28;42021;-83
2022/01/13 13:01:15;;;;;;;6.53;4.70;;;;;;;19.27;34.56;101349.53;5088156;28;42246;-84
2022/01/13 13:03:44;;;;;;;6.00;4.80;;;;;;;19.47;33.68;101345.66;5090350;28;40049;-85
2022/01/13 13:06:13;;;;;;;7.50;5.87;;;;;;;20.08;33.03;101358.94;5073758;28;41166;-85
2022/01/13 13:08:44;;;;;;;6.00;4.80;;;;;;;20.29;32.86;101362.09;5090198;28;42789;-91
2022/01/13 13:11:12;;;;;;;5.97;5.10;;;;;;;20.09;33.29;101347.22;5074144;28;42245;-88
2022/01/13 13:13:46;;;;;;;5.60;5.10;;;;;;;19.49;33.30;101340.22;5073411;28;38756;-89
2022/01/13 13:16:14;;;;;;;7.47;5.03;;;;;;;18.95;34.20;101343.31;5067227;28;40710;-91
2022/01/13 13:18:43;;;;;;;4.97;4.43;;;;;;;18.51;35.00;101337.78;5052721;28;41898;-89
2022/01/13 13:21:12;;;;;;;7.97;5.60;;;;;;;17.78;34.89;101346.28;5053751;28;41136;-86
2022/01/13 13:23:41;;;;;;;4.97;4.47;;;;;;;16.71;36.51;101314.16;5063837;28;39357;-86
2022/01/13 13:26:14;;;;;;;7.40;6.00;;;;;;;15.97;37.51;101321.22;5073727;28;40710;-92
2022/01/13 13:28:44;;;;;;;7.50;5.40;;;;;;;15.34;38.27;101308.88;5094562;28;41580;-88
2022/01/13 13:31:16;;;;;;;6.17;5.17;;;;;;;14.68;38.85;101300.97;5071021;28;41489;-90
2022/01/13 13:33:46;;;;;;;7.20;5.57;;;;;;;13.86;39.93;101256.19;5064835;28;38821;-87
2022/01/13 13:36:18;;;;;;;5.97;4.63;;;;;;;13.70;40.92;101292.31;5090358;28;41847;-88
2022/01/13 13:38:58;;;;;;;6.33;5.10;;;;;;;13.28;41.77;101284.06;5073000;28;41547;-84
2022/01/13 13:41:28;;;;;;;6.03;4.77;;;;;;;12.94;42.47;101271.03;5073861;28;41174;-88
2022/01/13 13:43:58;;;;;;;6.13;4.60;;;;;;;12.78;43.40;101280.41;5070871;28;40042;-88
2022/01/13 13:46:27;;;;;;;7.83;5.07;;;;;;;12.47;43.97;101269.91;5053848;28;40920;-84
2022/01/13 13:48:56;;;;;;;6.00;5.33;;;;;;;12.34;44.74;101273.88;5069028;28;43471;-87
2022/01/13 13:51:27;;;;;;;5.77;4.80;;;;;;;12.11;45.18;101263.97;5070116;28;42261;-83
2022/01/13 13:54:10;;;;;;;5.97;4.50;;;;;;;11.94;45.84;101263.59;5054566;28;39786;-84
2022/01/13 13:56:41;;;;;;;7.83;4.87;;;;;;;11.69;46.11;101251.00;5053605;28;40927;-84
2022/01/13 13:59:17;;;;;;;5.73;4.87;;;;;;;11.56;46.42;101248.72;5085544;28;42178;-87
2022/01/13 14:02:17;;;;;;;7.03;5.23;;;;;;;11.22;46.16;101230.25;5073895;28;41318;-83
2022/01/13 14:04:47;;;;;;;7.00;5.47;;;;;;;10.98;46.82;101232.63;5051019;28;39126;-83
2022/01/13 14:07:30;;;;;;;6.60;5.03;;;;;;;10.75;47.43;101208.50;5067357;28;40800;-81
2022/01/13 14:10:01;;;;;;;10.67;6.43;;;;;;;10.68;47.82;101238.72;5064362;28;42843;-82
2022/01/13 14:12:33;;;;;;;8.47;4.93;;;;;;;10.42;47.83;101232.25;5071736;28;42910;-84
2022/01/13 14:15:19;;;;;;;7.30;5.20;;;;;;;10.29;48.55;101238.75;5072593;28;38897;-86
2022/01/13 14:17:49;;;;;;;6.47;4.60;;;;;;;10.17;48.78;101243.44;5070088;28;41216;-88
2022/01/13 14:20:19;;;;;;;9.20;5.10;;;;;;;10.04;49.46;101245.47;5072283;28;41076;-89
2022/01/13 14:22:56;;;;;;;7.73;4.37;;;;;;;9.68;49.73;101200.38;5090487;28;42361;-88
2022/01/13 14:25:23;;;;;;;6.83;4.43;;;;;;;9.76;49.82;101224.06;5076133;28;38687;-86
2022/01/13 14:27:53;;;;;;;7.80;4.50;;;;;;;9.75;50.35;101245.25;5076028;28;41613;-87
2022/01/13 14:30:32;;;;;;;8.73;5.47;;;;;;;9.45;50.96;101207.06;5076119;28;42816;-85
2022/01/13 14:33:23;;;;;;;6.50;4.87;;;;;;;9.51;51.24;101234.28;5075650;28;42370;-83
2022/01/13 14:36:32;;;;;;;7.73;4.80;;;;;;;9.31;51.65;101220.56;5078273;28;40151;-85
2022/01/13 14:39:01;;;;;;;8.17;5.10;;;;;;;9.04;51.86;101195.50;5070236;28;40814;-84
2022/01/13 14:41:34;;;;;;;5.57;3.87;;;;;;;8.86;52.23;101190.59;5079810;28;41889;-87
2022/01/13 14:44:04;;;;;;;9.00;5.37;;;;;;;8.82;52.19;101210.91;5075145;28;41115;-86
2022/01/13 14:46:36;;;;;;;8.70;5.00;;;;;;;8.71;52.59;101212.88;5089827;28;40748;-83
2022/01/13 14:49:05;;;;;;;6.67;4.33;;;;;;;8.70;53.29;101232.25;5074599;28;40453;-85
2022/01/13 14:51:35;;;;;;;6.27;5.10;;;;;;;8.59;53.39;101229.78;5074161;28;41547;-88
2022/01/13 14:54:04;;;;;;;6.30;4.27;;;;;;;8.40;53.64;101217.78;5073688;28;42524;-85
2022/01/13 14:56:32;;;;;;;7.60;5.67;;;;;;;8.38;54.26;101229.28;5073847;28;38946;-85
2022/01/13 14:59:00;;;;;;;9.80;5.80;;;;;;;8.19;54.67;101207.50;5073712;28;40834;-83
2022/01/13 15:01:28;;;;;;;9.00;5.30;;;;;;;8.16;54.86;101223.41;5091282;28;42532;-86
2022/01/13 15:03:58;;;;;;;6.40;4.93;;;;;;;7.95;54.96;101208.75;5074831;28;41355;-87
2022/01/13 15:06:26;;;;;;;8.97;4.97;;;;;;;7.89;55.18;101209.72;5072559;28;38966;-85
2022/01/13 15:08:54;;;;;;;7.80;4.43;;;;;;;7.75;55.75;101210.81;5073241;28;41941;-85
2022/01/13 15:11:22;;;;;;;9.20;4.77;;;;;;;7.54;55.66;101201.41;5074182;28;42925;-84
2022/01/13 15:13:51;;;;;;;9.50;4.87;;;;;;;7.42;56.21;101191.88;5073259;28;41115;-88
2022/01/13 15:16:20;;;;;;;6.47;4.50;;;;;;;7.30;56.16;101193.78;5073812;28;39012;-84
2022/01/13 15:18:51;;;;;;;6.80;4.20;;;;;;;7.25;56.50;101199.13;5074296;28;40866;-89
2022/01/13 15:21:24;;;;;;;8.20;4.70;;;;;;;6.98;56.66;101173.06;5086909;28;43213;-85
2022/01/13 15:23:52;;;;;;;6.67;4.90;;;;;;;7.02;56.97;101201.13;5095369;28;41682;-86
2022/01/13 15:26:23;;;;;;;6.30;4.27;;;;;;;6.81;57.10;101189.91;5095199;28;38703;-86
2022/01/13 15:28:52;;;;;;;7.57;4.80;;;;;;;6.78;57.00;101200.50;5094678;28;41054;-87
2022/01/13 15:31:20;;;;;;;6.77;3.57;;;;;;;6.54;57.38;101184.94;5096459;28;41520;-82
2022/01/13 15:33:48;;;;;;;5.10;3.47;;;;;;;6.56;57.39;101200.69;5110703;28;41364;-81
2022/01/13 15:36:19;;;;;;;7.87;4.47;;;;;;;6.43;57.48;101203.41;5079194;28;38877;-85
2022/01/13 15:38:49;;;;;;;6.97;4.10;;;;;;;6.31;57.74;101205.28;5108772;28;41269;-83
2022/01/13 15:41:17;;;;;;;5.97;3.60;;;;;;;6.21;57.95;101211.50;5078572;28;42871;-85
2022/01/13 15:43:44;;;;;;;7.63;4.73;;;;;;;6.09;57.75;101202.81;5093929;28;41997;-84
2022/01/13 15:46:12;;;;;;;7.17;3.90;;;;;;;5.89;57.97;101191.53;5101711;28;39134;-84
2022/01/13 15:48:40;;;;;;;8.43;4.57;;;;;;;5.66;58.16;101167.13;5092279;28;41633;-85
2022/01/13 15:51:13;;;;;;;5.77;3.30;;;;;;;5.71;58.26;101187.22;5074211;28;42634;-84
2022/01/13 15:53:43;;;;;;;6.27;3.37;;;;;;;5.67;58.57;101189.91;5074508;28;42533;-85
2022/01/13 15:56:13;;;;;;;4.47;3.13;;;;;;;5.61;58.49;101192.53;5076141;28;38811;-86
2022/01/13 15:58:41;;;;;;;4.10;3.40;;;;;;;5.53;58.63;101187.34;5073899;28;40840;-88
2022/01/13 16:01:09;;;;;;;6.30;3.50;;;;;;;5.23;58.79;101156.78;5073662;28;41803;-86
2022/01/13 16:03:37;;;;;;;7.37;3.97;;;;;;;5.13;58.88;101143.72;5074197;28;42258;-84
2022/01/13 16:06:05;;;;;;;5.17;3.50;;;;;;;5.18;58.95;101169.09;5074425;28;40141;-88
2022/01/13 16:08:32;;;;;;;7.20;4.07;;;;;;;5.08;59.25;101167.34;5072885;28;40666;-87
2022/01/13 16:11:05;;;;;;;5.13;3.50;;;;;;;5.01;59.21;101171.75;5074294;28;41985;-87
2022/01/13 16:13:36;;;;;;;4.93;3.43;;;;;;;4.97;59.42;101177.00;5072854;28;41116;-88
2022/01/13 16:16:04;;;;;;;7.67;3.77;;;;;;;4.90;59.77;101177.91;5074766;28;39053;-89
2022/01/13 16:18:32;;;;;;;5.40;3.10;;;;;;;4.76;59.98;101159.56;5070108;28;40714;-86
2022/01/13 16:20:59;;;;;;;7.43;3.60;;;;;;;4.87;60.60;101186.66;5074001;28;42610;-89
2022/01/13 16:23:27;;;;;;;6.03;3.67;;;;;;;4.70;61.80;101162.19;5072903;28;42117;-87
2022/01/13 16:25:55;;;;;;;12.63;5.17;;;;;;;4.72;62.21;101177.94;5074712;28;38702;-84
2022/01/13 16:28:23;;;;;;;5.30;3.93;;;;;;;4.55;62.98;101159.63;5087860;28;40907;-86
2022/01/13 16:30:54;;;;;;;7.07;4.80;;;;;;;4.39;62.64;101143.00;5086408;28;42398;-84
2022/01/13 16:33:24;;;;;;;6.37;3.50;;;;;;;4.53;62.33;101177.97;5087927;28;42388;-84
2022/01/13 16:35:56;;;;;;;6.27;4.23;;;;;;;4.36;62.37;101148.25;5072121;28;40359;-89
2022/01/13 16:38:23;;;;;;;4.93;3.93;;;;;;;4.32;61.98;101149.16;5071629;28;41127;-86
2022/01/13 16:40:52;;;;;;;8.07;4.40;;;;;;;4.17;62.39;101143.88;5073177;28;41969;-90
2022/01/13 16:43:19;;;;;;;9.13;4.77;;;;;;;4.21;62.48;101164.84;5072300;28;41277;-87
2022/01/13 16:45:49;;;;;;;10.97;5.47;;;;;;;4.06;63.49;101143.91;5071417;28;38822;-88
2022/01/13 16:48:20;;;;;;;9.57;6.00;;;;;;;4.06;64.42;101145.63;5070516;28;41194;-84
2022/01/13 16:50:49;;;;;;;12.40;6.27;;;;;;;4.00;65.19;101154.38;5091114;28;42614;-88
2022/01/13 16:53:16;;;;;;;8.53;5.43;;;;;;;3.69;64.79;101115.91;5073970;28;41558;-90
2022/01/13 16:55:49;;;;;;;8.37;5.90;;;;;;;3.61;64.61;101115.88;5074183;28;39829;-90
2022/01/13 16:58:19;;;;;;;6.17;4.47;;;;;;;3.60;64.43;101124.59;5072718;28;40676;-86
2022/01/13 17:00:47;;;;;;;10.67;4.73;;;;;;;3.88;65.12;101165.72;5073848;28;42310;-85
2022/01/13 17:03:15;;;;;;;13.03;7.47;;;;;;;3.71;66.12;101135.97;5090715;28;41958;-85
2022/01/13 17:05:48;;;;;;;13.93;6.60;;;;;;;3.78;66.15;101163.06;5070192;28;38884;-88
2022/01/13 17:08:16;;;;;;;17.40;7.40;;;;;;;3.67;67.49;101143.84;5066833;28;40985;-86
2022/01/13 17:10:45;;;;;;;11.57;7.10;;;;;;;3.66;66.84;101157.81;5073989;28;41734;-88
2022/01/13 17:13:16;;;;;;;11.87;5.60;;;;;;;3.43;66.55;101139.41;5073649;28;41023;-84
2022/01/13 17:15:45;;;;;;;17.67;7.87;;;;;;;3.45;66.24;101154.28;5069568;28;39033;-84
2022/01/13 17:18:12;;;;;;;9.50;5.07;;;;;;;3.34;66.86;101139.41;5065748;28;42370;-88
2022/01/13 17:20:41;;;;;;;9.87;6.07;;;;;;;3.44;66.91;101172.59;5073519;28;41946;-85
2022/01/13 17:23:11;;;;;;;8.30;4.83;;;;;;;3.36;67.34;101159.44;5073744;28;41206;-87
2022/01/13 17:25:39;;;;;;;10.17;6.33;;;;;;;3.00;66.89;101113.06;5073016;28;39011;-84
2022/01/13 17:28:07;;;;;;;10.60;5.80;;;;;;;3.29;67.95;101162.06;5089945;28;40821;-87
2022/01/13 17:30:37;;;;;;;9.97;6.27;;;;;;;2.95;69.26;101114.78;5073587;28;41763;-87
2022/01/13 17:33:05;;;;;;;8.83;5.83;;;;;;;2.80;68.81;101105.13;5073072;28;41202;-87
2022/01/13 17:35:33;;;;;;;11.13;6.63;;;;;;;3.08;68.25;101155.88;5073628;28;39028;-83
2022/01/13 17:38:00;;;;;;;7.13;5.00;;;;;;;2.84;68.19;101124.34;5070125;28;41800;-84
2022/01/13 17:40:30;;;;;;;9.43;5.83;;;;;;;2.98;67.77;101161.03;5085566;28;43412;-86
2022/01/13 17:42:57;;;;;;;9.80;5.73;;;;;;;2.93;67.99;101161.03;5071130;28;40975;-88
2022/01/13 17:45:26;;;;;;;9.73;4.67;;;;;;;2.93;67.83;101163.63;5073554;28;38962;-87
2022/01/13 17:47:54;;;;;;;8.77;4.80;;;;;;;2.58;67.67;101111.13;5073587;28;41593;-88
2022/01/13 17:50:22;;;;;;;9.73;5.67;;;;;;;2.89;67.71;101167.97;5073745;28;41808;-88
2022/01/13 17:52:50;;;;;;;8.73;4.63;;;;;;;2.69;67.53;101138.22;5073644;28;41613;-87
2022/01/13 17:55:18;;;;;;;8.93;4.77;;;;;;;2.65;68.41;101122.47;5074066;28;40139;-88
2022/01/13 17:57:47;;;;;;;10.03;5.33;;;;;;;2.69;68.16;101153.91;5074675;28;41957;-87
2022/01/13 18:00:16;;;;;;;10.57;6.70;;;;;;;2.70;68.40;101160.03;5076644;28;42104;-87
2022/01/13 18:02:50;;;;;;;12.97;7.00;;;;;;;2.42;68.38;101115.38;5065427;28;41284;-87
2022/01/13 18:05:18;;;;;;;9.47;5.13;;;;;;;2.37;68.49;101118.81;5075615;28;39274;-88
2022/01/13 18:07:47;;;;;;;14.23;7.70;;;;;;;2.51;68.26;101153.78;5076245;28;40762;-88
2022/01/13 18:10:15;;;;;;;8.80;5.03;;;;;;;2.22;67.98;101106.53;5077205;28;41725;-86
2022/01/13 18:12:46;;;;;;;16.87;8.40;;;;;;;2.29;67.98;101121.38;5069011;28;41114;-87
2022/01/13 18:15:15;;;;;;;10.00;5.67;;;;;;;2.52;68.00;101166.88;5070469;28;39176;-87
2022/01/13 18:17:43;;;;;;;8.03;4.87;;;;;;;2.46;67.77;101155.50;5065069;28;40982;-88
2022/01/13 18:20:13;;;;;;;8.17;4.80;;;;;;;2.45;68.06;101175.53;5076655;28;43009;-87
2022/01/13 18:22:41;;;;;;;11.17;5.43;;;;;;;2.35;68.11;101162.41;5092993;28;41371;-88
2022/01/13 18:25:10;;;;;;;9.43;4.97;;;;;;;2.30;67.93;101159.72;5077414;28;40062;-87
2022/01/13 18:27:39;;;;;;;10.57;5.43;;;;;;;2.16;67.91;101145.66;5076477;28;40932;-86
2022/01/13 18:30:09;;;;;;;10.33;5.87;;;;;;;2.07;67.86;101135.16;5076239;28;41949;-88
2022/01/13 18:32:39;;;;;;;8.27;4.60;;;;;;;2.18;68.33;101157.03;5072395;28;43404;-86
2022/01/13 18:35:09;;;;;;;9.60;5.57;;;;;;;2.19;68.29;101161.38;5060161;28;39353;-87
2022/01/13 18:37:37;;;;;;;9.70;4.73;;;;;;;2.19;68.53;101171.84;5076423;28;42363;-86
2022/01/13 18:40:06;;;;;;;6.87;4.20;;;;;;;2.10;68.26;101154.31;5076488;28;42332;-87
2022/01/13 18:42:37;;;;;;;9.07;5.50;;;;;;;2.08;68.69;101153.47;5076594;28;42390;-87
2022/01/13 18:45:06;;;;;;;10.73;7.33;;;;;;;2.05;68.88;101155.16;5076970;28;39131;-86
2022/01/13 18:47:37;;;;;;;8.33;5.37;;;;;;;1.88;68.95;101125.38;5072686;28;41928;-88
2022/01/13 18:50:07;;;;;;;12.63;6.83;;;;;;;1.88;68.95;101133.22;5093488;28;41255;-87
2022/01/13 18:52:35;;;;;;;11.07;5.40;;;;;;;1.64;69.15;101094.69;5076384;28;41415;-87
2022/01/13 18:55:06;;;;;;;8.13;5.27;;;;;;;1.83;68.92;101135.81;5076668;28;39865;-87
2022/01/13 18:57:39;;;;;;;7.63;4.70;;;;;;;1.80;69.07;101131.41;5076744;28;40924;-87
2022/01/13 19:00:07;;;;;;;11.30;5.50;;;;;;;1.80;69.27;101130.53;5076406;28;42900;-87
2022/01/13 19:02:36;;;;;;;7.33;5.03;;;;;;;1.86;69.88;101146.25;5076339;28;41184;-87
2022/01/13 19:05:07;;;;;;;11.23;6.57;;;;;;;1.86;69.98;101146.25;5075455;28;39225;-89
2022/01/13 19:07:35;;;;;;;12.30;6.80;;;;;;;1.75;70.14;101138.31;5076680;28;40625;-87
2022/01/13 19:10:03;;;;;;;14.70;6.83;;;;;;;1.42;69.91;101080.56;5079177;28;41612;-88
2022/01/13 19:12:33;;;;;;;13.63;7.30;;;;;;;1.89;70.18;101154.13;5112317;28;43617;-87
2022/01/13 19:15:02;;;;;;;8.60;5.93;;;;;;;1.87;70.26;101157.59;5080648;28;40423;-87
2022/01/13 19:17:53;;;;;;;8.33;5.13;;;;;;;1.84;69.94;101160.19;5076394;28;41951;-87
2022/01/13 19:20:24;;;;;;;7.20;4.27;;;;;;;1.71;69.76;101128.72;5090206;28;42780;-88
2022/01/13 19:22:54;;;;;;;9.23;5.63;;;;;;;1.73;69.98;101150.50;5076093;28;41045;-86
2022/01/13 19:25:26;;;;;;;9.30;4.77;;;;;;;1.69;70.14;101143.50;5076220;28;39187;-87
2022/01/13 19:27:55;;;;;;;7.17;4.67;;;;;;;1.61;69.88;101134.69;5091364;28;41780;-87
2022/01/13 19:30:24;;;;;;;12.57;6.63;;;;;;;1.36;69.81;101093.56;5076286;28;42841;-86
2022/01/13 19:32:56;;;;;;;8.97;5.40;;;;;;;1.65;70.07;101151.28;5075825;28;41707;-87
2022/01/13 19:35:26;;;;;;;8.00;4.93;;;;;;;1.27;69.68;101086.47;5059267;28;40054;-87
2022/01/13 19:37:55;;;;;;;9.07;5.77;;;;;;;1.26;69.81;101086.47;5075515;28;41739;-88
2022/01/13 19:40:23;;;;;;;14.70;6.60;;;;;;;1.52;69.81;101133.75;5075599;28;41911;-87
2022/01/13 19:42:50;;;;;;;7.43;4.77;;;;;;;1.01;69.94;101046.16;5071895;28;41337;-87
